sensor_id;sensor_type;location;lat;lon;timestamp;temperature;humidity
34147;DHT22;20423;49.448;9.056;2023-09-19T00:00:20;14.20;99.90
34147;DHT22;20423;49.448;9.056;2023-09-19T00:03:06;14.20;99.90
34147;DHT22;20423;49.448;9.056;2023-09-19T00:05:34;14.20;99.90
34147;DHT22;20423;49.448;9.056;2023-09-19T00:08:01;14.20;99.90
34147;DHT22;20423;49.448;9.056;2023-09-19T00:10:30;14.10;99.90
34147;DHT22;20423;49.448;9.056;2023-09-19T00:13:01;14.10;99.90
34147;DHT22;20423;49.448;9.056;2023-09-19T00:15:36;14.10;99.90
34147;DHT22;20423;49.448;9.056;2023-09-19T00:18:03;14.10;99.90
34147;DHT22;20423;49.448;9.056;2023-09-19T00:20:32;14.10;99.90
34147;DHT22;20423;49.448;9.056;2023-09-19T00:22:57;14.00;99.90
34147;DHT22;20423;49.448;9.056;2023-09-19T00:25:30;14.00;99.90
34147;DHT22;20423;49.448;9.056;2023-09-19T00:27:57;14.00;99.90
34147;DHT22;20423;49.448;9.056;2023-09-19T00:30:23;14.00;99.90
34147;DHT22;20423;49.448;9.056;2023-09-19T00:32:50;14.10;99.90
34147;DHT22;20423;49.448;9.056;2023-09-19T00:35:23;14.10;99.90
34147;DHT22;20423;49.448;9.056;2023-09-19T00:37:53;14.10;99.90
34147;DHT22;20423;49.448;9.056;2023-09-19T00:40:19;14.10;99.90
34147;DHT22;20423;49.448;9.056;2023-09-19T00:43:08;14.10;99.90
34147;DHT22;20423;49.448;9.056;2023-09-19T00:45:36;14.20;99.90
34147;DHT22;20423;49.448;9.056;2023-09-19T00:48:04;14.10;99.90
34147;DHT22;20423;49.448;9.056;2023-09-19T00:50:35;14.20;99.90
34147;DHT22;20423;49.448;9.056;2023-09-19T00:53:01;14.20;99.90
34147;DHT22;20423;49.448;9.056;2023-09-19T00:55:29;14.20;99.90
34147;DHT22;20423;49.448;9.056;2023-09-19T00:57:56;14.20;99.90
34147;DHT22;20423;49.448;9.056;2023-09-19T01:00:22;14.20;99.90
34147;DHT22;20423;49.448;9.056;2023-09-19T01:02:49;14.20;99.90
34147;DHT22;20423;49.448;9.056;2023-09-19T01:05:15;14.20;99.90
34147;DHT22;20423;49.448;9.056;2023-09-19T01:07:41;14.20;99.90
34147;DHT22;20423;49.448;9.056;2023-09-19T01:10:41;14.20;99.90
34147;DHT22;20423;49.448;9.056;2023-09-19T01:22:07;14.20;99.90
34147;DHT22;20423;49.448;9.056;2023-09-19T01:31:05;14.20;99.90
34147;DHT22;20423;49.448;9.056;2023-09-19T01:34:00;14.20;99.90
34147;DHT22;20423;49.448;9.056;2023-09-19T01:36:30;14.20;99.90
34147;DHT22;20423;49.448;9.056;2023-09-19T01:38:58;14.30;99.90
34147;DHT22;20423;49.448;9.056;2023-09-19T01:41:38;14.30;99.90
34147;DHT22;20423;49.448;9.056;2023-09-19T01:48:19;14.30;99.90
34147;DHT22;20423;49.448;9.056;2023-09-19T01:55:54;14.30;99.90
34147;DHT22;20423;49.448;9.056;2023-09-19T01:58:47;14.30;99.90
34147;DHT22;20423;49.448;9.056;2023-09-19T02:01:21;14.30;99.90
34147;DHT22;20423;49.448;9.056;2023-09-19T02:03:48;14.30;99.90
34147;DHT22;20423;49.448;9.056;2023-09-19T02:06:16;14.30;99.90
34147;DHT22;20423;49.448;9.056;2023-09-19T02:08:43;14.30;99.90
34147;DHT22;20423;49.448;9.056;2023-09-19T02:11:08;14.30;99.90
34147;DHT22;20423;49.448;9.056;2023-09-19T02:13:34;14.30;99.90
34147;DHT22;20423;49.448;9.056;2023-09-19T02:16:00;14.30;99.90
34147;DHT22;20423;49.448;9.056;2023-09-19T02:18:25;14.30;99.90
34147;DHT22;20423;49.448;9.056;2023-09-19T02:20:53;14.20;99.90
34147;DHT22;20423;49.448;9.056;2023-09-19T02:23:20;14.30;99.90
34147;DHT22;20423;49.448;9.056;2023-09-19T02:25:55;14.30;99.90
34147;DHT22;20423;49.448;9.056;2023-09-19T02:28:26;14.30;99.90
34147;DHT22;20423;49.448;9.056;2023-09-19T02:30:56;14.30;99.90
34147;DHT22;20423;49.448;9.056;2023-09-19T02:33:22;14.30;99.90
34147;DHT22;20423;49.448;9.056;2023-09-19T02:35:55;14.30;99.90
34147;DHT22;20423;49.448;9.056;2023-09-19T02:38:23;14.30;99.90
34147;DHT22;20423;49.448;9.056;2023-09-19T02:40:51;14.30;99.90
34147;DHT22;20423;49.448;9.056;2023-09-19T02:43:17;14.30;99.90
34147;DHT22;20423;49.448;9.056;2023-09-19T02:45:45;14.30;99.90
34147;DHT22;20423;49.448;9.056;2023-09-19T02:48:12;14.20;99.90
34147;DHT22;20423;49.448;9.056;2023-09-19T02:50:38;14.30;99.90
34147;DHT22;20423;49.448;9.056;2023-09-19T02:53:05;14.30;99.90
34147;DHT22;20423;49.448;9.056;2023-09-19T02:55:32;14.20;99.90
34147;DHT22;20423;49.448;9.056;2023-09-19T02:57:59;14.30;99.90
34147;DHT22;20423;49.448;9.056;2023-09-19T03:00:26;14.20;99.90
34147;DHT22;20423;49.448;9.056;2023-09-19T03:02:55;14.30;99.90
34147;DHT22;20423;49.448;9.056;2023-09-19T03:05:22;14.30;99.90
34147;DHT22;20423;49.448;9.056;2023-09-19T03:07:52;14.20;99.90
34147;DHT22;20423;49.448;9.056;2023-09-19T03:10:20;14.20;99.90
34147;DHT22;20423;49.448;9.056;2023-09-19T03:12:46;14.20;99.90
34147;DHT22;20423;49.448;9.056;2023-09-19T03:15:13;14.20;99.90
34147;DHT22;20423;49.448;9.056;2023-09-19T03:17:46;14.20;99.90
34147;DHT22;20423;49.448;9.056;2023-09-19T03:20:15;14.20;99.90
34147;DHT22;20423;49.448;9.056;2023-09-19T03:22:47;14.20;99.90
34147;DHT22;20423;49.448;9.056;2023-09-19T03:25:14;14.20;99.90
34147;DHT22;20423;49.448;9.056;2023-09-19T03:27:59;14.20;99.90
34147;DHT22;20423;49.448;9.056;2023-09-19T03:30:25;14.10;99.90
34147;DHT22;20423;49.448;9.056;2023-09-19T03:32:52;14.20;99.90
34147;DHT22;20423;49.448;9.056;2023-09-19T03:35:19;14.10;99.90
34147;DHT22;20423;49.448;9.056;2023-09-19T03:37:45;14.20;99.90
34147;DHT22;20423;49.448;9.056;2023-09-19T03:40:14;14.10;99.90
34147;DHT22;20423;49.448;9.056;2023-09-19T03:42:41;14.10;99.90
34147;DHT22;20423;49.448;9.056;2023-09-19T03:45:10;14.10;99.90
34147;DHT22;20423;49.448;9.056;2023-09-19T03:47:46;14.10;99.90
34147;DHT22;20423;49.448;9.056;2023-09-19T03:50:17;14.10;99.90
34147;DHT22;20423;49.448;9.056;2023-09-19T03:52:44;14.00;99.90
34147;DHT22;20423;49.448;9.056;2023-09-19T03:55:09;14.00;99.90
34147;DHT22;20423;49.448;9.056;2023-09-19T03:57:37;14.00;99.90
34147;DHT22;20423;49.448;9.056;2023-09-19T04:00:04;14.00;99.90
34147;DHT22;20423;49.448;9.056;2023-09-19T04:09:23;13.80;99.90
34147;DHT22;20423;49.448;9.056;2023-09-19T04:11:48;13.80;99.90
34147;DHT22;20423;49.448;9.056;2023-09-19T04:14:15;13.70;99.90
34147;DHT22;20423;49.448;9.056;2023-09-19T04:16:59;13.70;99.90
34147;DHT22;20423;49.448;9.056;2023-09-19T04:19:26;13.70;99.90
34147;DHT22;20423;49.448;9.056;2023-09-19T04:21:51;13.60;99.90
34147;DHT22;20423;49.448;9.056;2023-09-19T04:24:17;13.50;99.90
34147;DHT22;20423;49.448;9.056;2023-09-19T04:26:45;13.50;99.90
34147;DHT22;20423;49.448;9.056;2023-09-19T04:29:11;13.50;99.90
34147;DHT22;20423;49.448;9.056;2023-09-19T04:31:36;13.40;99.90
34147;DHT22;20423;49.448;9.056;2023-09-19T04:34:03;13.30;99.90
34147;DHT22;20423;49.448;9.056;2023-09-19T04:36:29;13.30;99.90
34147;DHT22;20423;49.448;9.056;2023-09-19T04:38:55;13.20;99.90
34147;DHT22;20423;49.448;9.056;2023-09-19T04:41:21;13.10;99.90
34147;DHT22;20423;49.448;9.056;2023-09-19T04:43:47;13.10;99.90
34147;DHT22;20423;49.448;9.056;2023-09-19T04:46:15;13.00;99.90
34147;DHT22;20423;49.448;9.056;2023-09-19T04:48:40;13.00;99.90
34147;DHT22;20423;49.448;9.056;2023-09-19T04:51:07;13.00;99.90
34147;DHT22;20423;49.448;9.056;2023-09-19T04:53:32;13.00;99.90
34147;DHT22;20423;49.448;9.056;2023-09-19T04:55:58;13.00;99.90
34147;DHT22;20423;49.448;9.056;2023-09-19T04:58:23;13.00;99.90
34147;DHT22;20423;49.448;9.056;2023-09-19T05:00:49;12.90;99.90
34147;DHT22;20423;49.448;9.056;2023-09-19T05:03:41;12.90;99.90
34147;DHT22;20423;49.448;9.056;2023-09-19T05:06:07;12.80;99.90
34147;DHT22;20423;49.448;9.056;2023-09-19T05:08:33;12.80;99.90
34147;DHT22;20423;49.448;9.056;2023-09-19T05:11:02;12.70;99.90
34147;DHT22;20423;49.448;9.056;2023-09-19T05:13:28;12.70;99.90
34147;DHT22;20423;49.448;9.056;2023-09-19T05:16:03;12.70;99.90
34147;DHT22;20423;49.448;9.056;2023-09-19T05:18:29;12.70;99.90
34147;DHT22;20423;49.448;9.056;2023-09-19T05:20:54;12.80;99.90
34147;DHT22;20423;49.448;9.056;2023-09-19T05:23:20;12.80;99.90
34147;DHT22;20423;49.448;9.056;2023-09-19T05:26:02;12.80;99.90
34147;DHT22;20423;49.448;9.056;2023-09-19T05:28:27;12.80;99.90
34147;DHT22;20423;49.448;9.056;2023-09-19T05:30:53;12.90;99.90
34147;DHT22;20423;49.448;9.056;2023-09-19T05:33:19;13.00;99.90
34147;DHT22;20423;49.448;9.056;2023-09-19T05:35:45;13.00;99.90
34147;DHT22;20423;49.448;9.056;2023-09-19T05:38:13;13.00;99.90
34147;DHT22;20423;49.448;9.056;2023-09-19T05:40:39;13.00;99.90
34147;DHT22;20423;49.448;9.056;2023-09-19T05:43:11;13.00;99.90
34147;DHT22;20423;49.448;9.056;2023-09-19T05:45:37;13.00;99.90
34147;DHT22;20423;49.448;9.056;2023-09-19T05:48:10;13.00;99.90
34147;DHT22;20423;49.448;9.056;2023-09-19T05:50:37;13.10;99.90
34147;DHT22;20423;49.448;9.056;2023-09-19T05:53:04;13.10;99.90
34147;DHT22;20423;49.448;9.056;2023-09-19T05:55:31;13.20;99.90
34147;DHT22;20423;49.448;9.056;2023-09-19T05:57:56;13.20;99.90
34147;DHT22;20423;49.448;9.056;2023-09-19T06:00:23;13.30;99.90
34147;DHT22;20423;49.448;9.056;2023-09-19T06:02:53;13.30;99.90
34147;DHT22;20423;49.448;9.056;2023-09-19T06:05:19;13.40;99.90
34147;DHT22;20423;49.448;9.056;2023-09-19T06:07:46;13.40;99.90
34147;DHT22;20423;49.448;9.056;2023-09-19T06:10:12;13.50;99.90
34147;DHT22;20423;49.448;9.056;2023-09-19T06:12:39;13.50;99.90
34147;DHT22;20423;49.448;9.056;2023-09-19T06:15:06;13.50;99.90
34147;DHT22;20423;49.448;9.056;2023-09-19T06:17:34;13.60;99.90
34147;DHT22;20423;49.448;9.056;2023-09-19T06:20:05;13.70;99.90
34147;DHT22;20423;49.448;9.056;2023-09-19T06:22:39;13.80;99.90
34147;DHT22;20423;49.448;9.056;2023-09-19T06:25:07;13.90;99.90
34147;DHT22;20423;49.448;9.056;2023-09-19T06:27:33;13.90;99.90
34147;DHT22;20423;49.448;9.056;2023-09-19T06:30:02;14.00;99.90
34147;DHT22;20423;49.448;9.056;2023-09-19T06:32:28;14.10;99.90
34147;DHT22;20423;49.448;9.056;2023-09-19T06:34:54;14.20;99.90
34147;DHT22;20423;49.448;9.056;2023-09-19T06:37:21;14.20;99.90
34147;DHT22;20423;49.448;9.056;2023-09-19T06:39:47;14.20;99.90
34147;DHT22;20423;49.448;9.056;2023-09-19T06:42:15;14.20;99.90
34147;DHT22;20423;49.448;9.056;2023-09-19T06:44:43;14.30;99.90
34147;DHT22;20423;49.448;9.056;2023-09-19T06:47:09;14.30;99.90
34147;DHT22;20423;49.448;9.056;2023-09-19T06:49:36;14.30;99.90
34147;DHT22;20423;49.448;9.056;2023-09-19T06:52:02;14.40;99.90
34147;DHT22;20423;49.448;9.056;2023-09-19T06:54:28;14.40;99.90
34147;DHT22;20423;49.448;9.056;2023-09-19T06:56:57;14.50;99.90
34147;DHT22;20423;49.448;9.056;2023-09-19T06:59:25;14.50;99.90
34147;DHT22;20423;49.448;9.056;2023-09-19T07:01:51;14.70;99.90
34147;DHT22;20423;49.448;9.056;2023-09-19T07:04:17;14.80;99.90
34147;DHT22;20423;49.448;9.056;2023-09-19T07:06:49;14.80;99.90
34147;DHT22;20423;49.448;9.056;2023-09-19T07:09:16;14.90;99.90
34147;DHT22;20423;49.448;9.056;2023-09-19T07:11:42;14.90;99.90
34147;DHT22;20423;49.448;9.056;2023-09-19T07:14:08;14.80;99.90
34147;DHT22;20423;49.448;9.056;2023-09-19T07:16:38;14.90;99.90
34147;DHT22;20423;49.448;9.056;2023-09-19T07:19:05;14.80;99.90
34147;DHT22;20423;49.448;9.056;2023-09-19T07:21:31;14.80;99.90
34147;DHT22;20423;49.448;9.056;2023-09-19T07:23:59;14.70;99.90
34147;DHT22;20423;49.448;9.056;2023-09-19T07:26:26;14.70;99.90
34147;DHT22;20423;49.448;9.056;2023-09-19T07:28:53;14.70;99.90
34147;DHT22;20423;49.448;9.056;2023-09-19T07:31:19;14.70;99.90
34147;DHT22;20423;49.448;9.056;2023-09-19T07:33:45;14.70;99.90
34147;DHT22;20423;49.448;9.056;2023-09-19T07:36:11;14.60;99.90
34147;DHT22;20423;49.448;9.056;2023-09-19T07:38:42;14.60;99.90
34147;DHT22;20423;49.448;9.056;2023-09-19T07:41:08;14.70;99.90
34147;DHT22;20423;49.448;9.056;2023-09-19T07:43:35;14.80;99.90
34147;DHT22;20423;49.448;9.056;2023-09-19T07:46:05;14.90;99.90
34147;DHT22;20423;49.448;9.056;2023-09-19T07:48:35;15.00;99.90
34147;DHT22;20423;49.448;9.056;2023-09-19T07:51:06;15.00;99.90
34147;DHT22;20423;49.448;9.056;2023-09-19T07:53:33;15.00;99.90
34147;DHT22;20423;49.448;9.056;2023-09-19T07:56:07;15.20;99.90
34147;DHT22;20423;49.448;9.056;2023-09-19T07:58:33;15.30;99.90
34147;DHT22;20423;49.448;9.056;2023-09-19T08:01:06;15.40;99.90
34147;DHT22;20423;49.448;9.056;2023-09-19T08:03:33;15.50;99.90
34147;DHT22;20423;49.448;9.056;2023-09-19T08:06:00;15.70;99.90
34147;DHT22;20423;49.448;9.056;2023-09-19T08:08:27;15.80;99.90
34147;DHT22;20423;49.448;9.056;2023-09-19T08:10:56;15.90;99.90
34147;DHT22;20423;49.448;9.056;2023-09-19T08:13:23;15.90;99.90
34147;DHT22;20423;49.448;9.056;2023-09-19T08:15:49;15.80;99.90
34147;DHT22;20423;49.448;9.056;2023-09-19T08:18:15;15.80;99.90
34147;DHT22;20423;49.448;9.056;2023-09-19T08:20:41;16.00;99.90
34147;DHT22;20423;49.448;9.056;2023-09-19T08:23:11;16.00;99.90
34147;DHT22;20423;49.448;9.056;2023-09-19T08:25:37;16.10;99.90
34147;DHT22;20423;49.448;9.056;2023-09-19T08:28:05;16.30;99.90
34147;DHT22;20423;49.448;9.056;2023-09-19T08:30:34;16.40;99.90
34147;DHT22;20423;49.448;9.056;2023-09-19T08:33:01;16.50;99.90
34147;DHT22;20423;49.448;9.056;2023-09-19T08:35:29;16.30;99.90
34147;DHT22;20423;49.448;9.056;2023-09-19T08:37:55;16.50;99.90
34147;DHT22;20423;49.448;9.056;2023-09-19T08:40:22;16.70;99.90
34147;DHT22;20423;49.448;9.056;2023-09-19T08:42:52;17.00;99.90
34147;DHT22;20423;49.448;9.056;2023-09-19T08:45:19;17.20;99.90
34147;DHT22;20423;49.448;9.056;2023-09-19T08:48:11;17.00;99.90
34147;DHT22;20423;49.448;9.056;2023-09-19T08:50:49;16.50;99.90
34147;DHT22;20423;49.448;9.056;2023-09-19T08:53:26;16.80;99.90
34147;DHT22;20423;49.448;9.056;2023-09-19T08:55:53;16.90;99.90
34147;DHT22;20423;49.448;9.056;2023-09-19T08:58:21;16.40;99.90
34147;DHT22;20423;49.448;9.056;2023-09-19T09:00:53;16.50;99.90
34147;DHT22;20423;49.448;9.056;2023-09-19T09:03:20;16.50;99.90
34147;DHT22;20423;49.448;9.056;2023-09-19T09:05:47;16.20;99.90
34147;DHT22;20423;49.448;9.056;2023-09-19T09:08:47;16.10;99.90
34147;DHT22;20423;49.448;9.056;2023-09-19T09:11:14;16.00;99.90
34147;DHT22;20423;49.448;9.056;2023-09-19T09:13:40;16.10;99.90
34147;DHT22;20423;49.448;9.056;2023-09-19T09:16:07;16.10;99.90
34147;DHT22;20423;49.448;9.056;2023-09-19T09:18:34;16.10;99.90
34147;DHT22;20423;49.448;9.056;2023-09-19T09:20:59;16.20;99.90
34147;DHT22;20423;49.448;9.056;2023-09-19T09:23:27;16.00;99.90
34147;DHT22;20423;49.448;9.056;2023-09-19T09:25:55;16.20;99.90
34147;DHT22;20423;49.448;9.056;2023-09-19T09:28:26;16.50;99.90
34147;DHT22;20423;49.448;9.056;2023-09-19T09:30:53;16.60;99.90
34147;DHT22;20423;49.448;9.056;2023-09-19T09:33:20;16.50;99.90
34147;DHT22;20423;49.448;9.056;2023-09-19T09:38:18;17.10;99.90
34147;DHT22;20423;49.448;9.056;2023-09-19T09:40:51;17.40;99.90
34147;DHT22;20423;49.448;9.056;2023-09-19T09:49:04;18.50;99.90
34147;DHT22;20423;49.448;9.056;2023-09-19T09:51:59;19.00;99.90
34147;DHT22;20423;49.448;9.056;2023-09-19T09:54:28;18.70;99.90
34147;DHT22;20423;49.448;9.056;2023-09-19T09:57:01;18.50;99.90
34147;DHT22;20423;49.448;9.056;2023-09-19T09:59:50;18.20;99.90
34147;DHT22;20423;49.448;9.056;2023-09-19T10:04:55;18.20;99.90
34147;DHT22;20423;49.448;9.056;2023-09-19T10:07:31;18.20;99.90
34147;DHT22;20423;49.448;9.056;2023-09-19T10:09:59;18.10;99.90
34147;DHT22;20423;49.448;9.056;2023-09-19T10:12:38;18.30;99.90
34147;DHT22;20423;49.448;9.056;2023-09-19T10:15:08;18.20;99.90
34147;DHT22;20423;49.448;9.056;2023-09-19T10:17:36;18.30;99.90
34147;DHT22;20423;49.448;9.056;2023-09-19T10:23:27;18.50;99.90
34147;DHT22;20423;49.448;9.056;2023-09-19T10:25:56;18.40;99.90
34147;DHT22;20423;49.448;9.056;2023-09-19T10:28:23;18.20;99.90
34147;DHT22;20423;49.448;9.056;2023-09-19T10:30:53;18.10;99.90
34147;DHT22;20423;49.448;9.056;2023-09-19T10:33:21;18.30;99.90
34147;DHT22;20423;49.448;9.056;2023-09-19T10:35:49;18.30;99.90
34147;DHT22;20423;49.448;9.056;2023-09-19T10:38:17;18.30;99.90
34147;DHT22;20423;49.448;9.056;2023-09-19T10:40:51;18.40;99.90
34147;DHT22;20423;49.448;9.056;2023-09-19T10:43:19;18.00;99.90
34147;DHT22;20423;49.448;9.056;2023-09-19T10:45:48;18.10;99.90
34147;DHT22;20423;49.448;9.056;2023-09-19T10:48:19;18.20;99.90
34147;DHT22;20423;49.448;9.056;2023-09-19T10:51:09;18.50;99.90
34147;DHT22;20423;49.448;9.056;2023-09-19T10:56:18;17.70;99.90
34147;DHT22;20423;49.448;9.056;2023-09-19T10:58:47;17.80;99.90
34147;DHT22;20423;49.448;9.056;2023-09-19T11:01:44;17.80;99.90
34147;DHT22;20423;49.448;9.056;2023-09-19T11:07:13;17.40;99.90
34147;DHT22;20423;49.448;9.056;2023-09-19T11:15:07;17.60;99.90
34147;DHT22;20423;49.448;9.056;2023-09-19T11:17:35;18.30;99.90
34147;DHT22;20423;49.448;9.056;2023-09-19T11:30:49;21.40;99.90
34147;DHT22;20423;49.448;9.056;2023-09-19T11:33:23;21.10;99.90
34147;DHT22;20423;49.448;9.056;2023-09-19T11:36:10;20.80;99.90
34147;DHT22;20423;49.448;9.056;2023-09-19T11:43:46;20.50;99.90
34147;DHT22;20423;49.448;9.056;2023-09-19T11:46:12;20.80;99.90
34147;DHT22;20423;49.448;9.056;2023-09-19T11:48:42;20.80;99.90
34147;DHT22;20423;49.448;9.056;2023-09-19T11:51:23;20.80;99.90
34147;DHT22;20423;49.448;9.056;2023-09-19T11:53:57;20.50;99.90
34147;DHT22;20423;49.448;9.056;2023-09-19T11:56:26;20.30;99.90
34147;DHT22;20423;49.448;9.056;2023-09-19T11:58:57;19.70;99.90
34147;DHT22;20423;49.448;9.056;2023-09-19T12:01:32;19.80;99.90
34147;DHT22;20423;49.448;9.056;2023-09-19T12:04:01;19.70;99.90
34147;DHT22;20423;49.448;9.056;2023-09-19T12:06:28;19.30;99.90
34147;DHT22;20423;49.448;9.056;2023-09-19T12:09:02;18.90;99.90
34147;DHT22;20423;49.448;9.056;2023-09-19T12:11:32;18.70;99.90
34147;DHT22;20423;49.448;9.056;2023-09-19T12:14:04;18.40;99.90
34147;DHT22;20423;49.448;9.056;2023-09-19T12:16:31;17.90;99.90
34147;DHT22;20423;49.448;9.056;2023-09-19T12:19:17;17.60;99.90
34147;DHT22;20423;49.448;9.056;2023-09-19T12:25:23;18.20;99.90
34147;DHT22;20423;49.448;9.056;2023-09-19T12:27:50;18.50;99.90
34147;DHT22;20423;49.448;9.056;2023-09-19T12:30:18;18.40;99.90
34147;DHT22;20423;49.448;9.056;2023-09-19T12:32:46;18.40;99.90
34147;DHT22;20423;49.448;9.056;2023-09-19T12:35:31;18.20;99.90
34147;DHT22;20423;49.448;9.056;2023-09-19T12:38:01;18.30;99.90
34147;DHT22;20423;49.448;9.056;2023-09-19T12:40:26;18.80;99.90
34147;DHT22;20423;49.448;9.056;2023-09-19T12:42:59;18.70;99.90
34147;DHT22;20423;49.448;9.056;2023-09-19T12:45:26;19.10;99.90
34147;DHT22;20423;49.448;9.056;2023-09-19T12:51:05;19.00;99.90
34147;DHT22;20423;49.448;9.056;2023-09-19T12:53:37;19.10;99.90
34147;DHT22;20423;49.448;9.056;2023-09-19T12:56:06;18.90;99.90
34147;DHT22;20423;49.448;9.056;2023-09-19T12:58:34;18.70;99.90
34147;DHT22;20423;49.448;9.056;2023-09-19T13:01:01;18.70;99.90
34147;DHT22;20423;49.448;9.056;2023-09-19T13:03:30;18.80;99.90
34147;DHT22;20423;49.448;9.056;2023-09-19T13:06:03;18.70;99.90
34147;DHT22;20423;49.448;9.056;2023-09-19T13:08:37;19.00;99.90
34147;DHT22;20423;49.448;9.056;2023-09-19T13:11:11;19.60;99.90
34147;DHT22;20423;49.448;9.056;2023-09-19T13:16:30;20.20;99.90
34147;DHT22;20423;49.448;9.056;2023-09-19T13:18:56;20.20;99.90
34147;DHT22;20423;49.448;9.056;2023-09-19T13:21:30;20.30;99.90
34147;DHT22;20423;49.448;9.056;2023-09-19T13:24:18;20.10;99.90
34147;DHT22;20423;49.448;9.056;2023-09-19T13:26:44;19.80;99.90
34147;DHT22;20423;49.448;9.056;2023-09-19T13:29:38;19.50;99.90
34147;DHT22;20423;49.448;9.056;2023-09-19T13:32:04;19.30;99.90
34147;DHT22;20423;49.448;9.056;2023-09-19T13:34:29;19.10;99.90
34147;DHT22;20423;49.448;9.056;2023-09-19T13:36:56;18.80;99.90
34147;DHT22;20423;49.448;9.056;2023-09-19T13:39:21;18.60;99.90
34147;DHT22;20423;49.448;9.056;2023-09-19T13:41:50;18.70;99.90
34147;DHT22;20423;49.448;9.056;2023-09-19T13:44:15;18.90;99.90
34147;DHT22;20423;49.448;9.056;2023-09-19T13:47:14;19.00;99.90
34147;DHT22;20423;49.448;9.056;2023-09-19T13:49:40;19.20;99.90
34147;DHT22;20423;49.448;9.056;2023-09-19T13:52:06;19.30;99.90
34147;DHT22;20423;49.448;9.056;2023-09-19T13:54:32;19.40;99.90
34147;DHT22;20423;49.448;9.056;2023-09-19T13:56:58;19.60;99.90
34147;DHT22;20423;49.448;9.056;2023-09-19T13:59:24;19.80;99.90
34147;DHT22;20423;49.448;9.056;2023-09-19T14:01:50;19.90;99.90
34147;DHT22;20423;49.448;9.056;2023-09-19T14:04:16;19.90;99.90
34147;DHT22;20423;49.448;9.056;2023-09-19T14:06:42;19.90;99.90
34147;DHT22;20423;49.448;9.056;2023-09-19T14:09:08;19.90;99.90
34147;DHT22;20423;49.448;9.056;2023-09-19T14:11:36;19.80;99.90
34147;DHT22;20423;49.448;9.056;2023-09-19T14:14:01;20.00;99.90
34147;DHT22;20423;49.448;9.056;2023-09-19T14:16:27;20.00;99.90
34147;DHT22;20423;49.448;9.056;2023-09-19T14:18:57;20.00;99.90
34147;DHT22;20423;49.448;9.056;2023-09-19T14:21:23;19.90;99.90
34147;DHT22;20423;49.448;9.056;2023-09-19T14:23:49;19.80;99.90
34147;DHT22;20423;49.448;9.056;2023-09-19T14:26:15;19.70;99.90
34147;DHT22;20423;49.448;9.056;2023-09-19T14:28:44;20.00;99.90
34147;DHT22;20423;49.448;9.056;2023-09-19T14:31:11;20.10;99.90
34147;DHT22;20423;49.448;9.056;2023-09-19T14:33:37;20.20;99.90
34147;DHT22;20423;49.448;9.056;2023-09-19T14:36:09;20.20;99.90
34147;DHT22;20423;49.448;9.056;2023-09-19T14:38:37;20.10;99.90
34147;DHT22;20423;49.448;9.056;2023-09-19T14:41:09;20.20;99.90
34147;DHT22;20423;49.448;9.056;2023-09-19T14:43:34;20.30;99.90
34147;DHT22;20423;49.448;9.056;2023-09-19T14:46:25;20.40;99.90
34147;DHT22;20423;49.448;9.056;2023-09-19T14:48:52;20.20;99.90
34147;DHT22;20423;49.448;9.056;2023-09-19T14:54:24;19.90;99.90
34147;DHT22;20423;49.448;9.056;2023-09-19T14:56:49;19.60;99.90
34147;DHT22;20423;49.448;9.056;2023-09-19T14:59:19;19.50;99.90
34147;DHT22;20423;49.448;9.056;2023-09-19T15:05:11;20.00;99.90
34147;DHT22;20423;49.448;9.056;2023-09-19T15:07:37;19.90;99.90
34147;DHT22;20423;49.448;9.056;2023-09-19T15:10:04;19.80;99.90
34147;DHT22;20423;49.448;9.056;2023-09-19T15:12:36;19.70;99.90
34147;DHT22;20423;49.448;9.056;2023-09-19T15:15:04;19.50;99.90
34147;DHT22;20423;49.448;9.056;2023-09-19T15:17:32;19.40;99.90
34147;DHT22;20423;49.448;9.056;2023-09-19T15:20:20;19.30;99.90
34147;DHT22;20423;49.448;9.056;2023-09-19T15:22:45;19.20;99.90
34147;DHT22;20423;49.448;9.056;2023-09-19T15:25:11;19.10;99.90
34147;DHT22;20423;49.448;9.056;2023-09-19T15:27:37;18.90;99.90
34147;DHT22;20423;49.448;9.056;2023-09-19T15:30:03;18.80;99.90
34147;DHT22;20423;49.448;9.056;2023-09-19T15:32:30;18.70;99.90
34147;DHT22;20423;49.448;9.056;2023-09-19T15:34:56;18.70;99.90
34147;DHT22;20423;49.448;9.056;2023-09-19T15:37:22;18.60;99.90
34147;DHT22;20423;49.448;9.056;2023-09-19T15:39:48;18.70;99.90
34147;DHT22;20423;49.448;9.056;2023-09-19T15:42:14;18.70;99.90
34147;DHT22;20423;49.448;9.056;2023-09-19T15:44:41;18.60;99.90
34147;DHT22;20423;49.448;9.056;2023-09-19T15:47:46;18.60;99.90
34147;DHT22;20423;49.448;9.056;2023-09-19T15:50:12;18.60;99.90
34147;DHT22;20423;49.448;9.056;2023-09-19T15:52:41;18.50;99.90
34147;DHT22;20423;49.448;9.056;2023-09-19T15:55:08;18.50;99.90
34147;DHT22;20423;49.448;9.056;2023-09-19T15:57:38;18.50;99.90
34147;DHT22;20423;49.448;9.056;2023-09-19T16:00:06;18.50;99.90
34147;DHT22;20423;49.448;9.056;2023-09-19T16:02:37;18.50;99.90
34147;DHT22;20423;49.448;9.056;2023-09-19T16:05:03;18.30;99.90
34147;DHT22;20423;49.448;9.056;2023-09-19T16:07:32;18.20;99.90
34147;DHT22;20423;49.448;9.056;2023-09-19T16:09:59;18.10;99.90
34147;DHT22;20423;49.448;9.056;2023-09-19T16:12:25;18.10;99.90
34147;DHT22;20423;49.448;9.056;2023-09-19T16:14:51;18.10;99.90
34147;DHT22;20423;49.448;9.056;2023-09-19T16:17:17;18.20;99.90
34147;DHT22;20423;49.448;9.056;2023-09-19T16:19:43;18.50;99.90
34147;DHT22;20423;49.448;9.056;2023-09-19T16:22:09;19.30;99.90
34147;DHT22;20423;49.448;9.056;2023-09-19T16:27:40;19.60;99.90
34147;DHT22;20423;49.448;9.056;2023-09-19T16:30:22;19.40;99.90
34147;DHT22;20423;49.448;9.056;2023-09-19T16:32:47;19.00;99.90
34147;DHT22;20423;49.448;9.056;2023-09-19T16:35:13;18.90;99.90
34147;DHT22;20423;49.448;9.056;2023-09-19T16:37:39;18.70;99.90
34147;DHT22;20423;49.448;9.056;2023-09-19T16:40:05;18.60;99.90
34147;DHT22;20423;49.448;9.056;2023-09-19T16:42:32;18.50;99.90
34147;DHT22;20423;49.448;9.056;2023-09-19T16:44:57;18.50;99.90
34147;DHT22;20423;49.448;9.056;2023-09-19T16:47:24;18.40;99.90
34147;DHT22;20423;49.448;9.056;2023-09-19T16:50:21;18.40;99.90
34147;DHT22;20423;49.448;9.056;2023-09-19T16:52:47;18.30;99.90
34147;DHT22;20423;49.448;9.056;2023-09-19T16:55:13;18.20;99.90
34147;DHT22;20423;49.448;9.056;2023-09-19T16:57:40;18.10;99.90
34147;DHT22;20423;49.448;9.056;2023-09-19T17:00:08;17.90;99.90
34147;DHT22;20423;49.448;9.056;2023-09-19T17:02:35;17.80;99.90
34147;DHT22;20423;49.448;9.056;2023-09-19T17:05:02;17.70;99.90
34147;DHT22;20423;49.448;9.056;2023-09-19T17:07:28;17.60;99.90
34147;DHT22;20423;49.448;9.056;2023-09-19T17:09:54;17.60;99.90
34147;DHT22;20423;49.448;9.056;2023-09-19T17:12:20;17.50;99.90
34147;DHT22;20423;49.448;9.056;2023-09-19T17:14:46;17.30;99.90